Plymouth, Maine
Current Conditions -  °F | °C
As of 9:53 AM on Monday 22 Dec 2014 (Local Time) from KBGR Reporting Station
Broken Clouds Broken Clouds  
Wind Chill: 29°   Ceiling: 5500
Heat Index: 29°   Visibility: 10mi
Dew Point: 26°   Wind: 3mph
Humidity: 89%   Direction: 320°NW
Pressure: 30.45"   Gusts: NA
Location:  44.77°N, 69.21°W
Report Text: KBGR 221453Z 32003KT 10SM BKN055 M02/M03 A3045 RMK AO2 SLP315 T10171033 51009
Loading
Personal Weather Stations






























Interactive Weather Map New forecast layout! Learn more

10-Day Weather Forecast

Advertisements
Track Severe Weather on mobile